createdAt,value
2023-05-19T00:02:09.307Z,99.90
2023-05-19T00:04:58.303Z,99.90
2023-05-19T00:07:47.137Z,99.90
2023-05-19T00:10:35.584Z,99.90
2023-05-19T00:13:24.104Z,99.90
2023-05-19T00:16:13.035Z,99.90
2023-05-19T00:19:03.311Z,99.90
2023-05-19T00:21:51.564Z,99.90
2023-05-19T00:24:39.661Z,99.90
2023-05-19T00:27:27.781Z,99.90
2023-05-19T00:30:16.282Z,99.90
2023-05-19T00:33:04.529Z,99.90
2023-05-19T00:35:54.044Z,99.90
2023-05-19T00:38:42.202Z,99.90
2023-05-19T00:41:30.503Z,99.90
2023-05-19T00:44:19.043Z,99.90
2023-05-19T00:47:07.573Z,99.90
2023-05-19T00:49:55.745Z,99.90
2023-05-19T00:52:45.319Z,99.90
2023-05-19T00:55:34.519Z,99.90
2023-05-19T00:58:23.910Z,99.90
2023-05-19T01:01:14.590Z,99.90
2023-05-19T01:04:04.114Z,99.90
2023-05-19T01:06:54.903Z,99.90
2023-05-19T01:09:44.616Z,99.90
2023-05-19T01:12:32.770Z,99.90
2023-05-19T01:15:20.964Z,99.90
2023-05-19T01:18:11.262Z,99.90
2023-05-19T01:21:05.880Z,99.90
2023-05-19T01:24:01.532Z,99.90
2023-05-19T01:27:03.367Z,99.90
2023-05-19T01:30:00.036Z,99.90
2023-05-19T01:32:49.762Z,99.90
2023-05-19T01:35:38.791Z,99.90
2023-05-19T01:38:27.275Z,99.90
2023-05-19T01:41:15.853Z,99.90
2023-05-19T01:44:04.097Z,99.90
2023-05-19T01:46:52.705Z,99.90
2023-05-19T01:49:42.164Z,99.90
2023-05-19T01:52:30.522Z,99.90
2023-05-19T01:55:18.818Z,99.90
2023-05-19T01:58:10.531Z,99.90
2023-05-19T02:01:04.180Z,99.90
2023-05-19T02:03:58.197Z,99.90
2023-05-19T02:06:51.052Z,99.90
2023-05-19T02:09:40.808Z,99.90
2023-05-19T02:12:29.952Z,99.90
2023-05-19T02:15:19.491Z,99.90
2023-05-19T02:18:11.569Z,99.90
2023-05-19T02:20:59.723Z,99.90
2023-05-19T02:23:49.393Z,99.90
2023-05-19T02:26:37.525Z,99.90
2023-05-19T02:29:25.904Z,99.90
2023-05-19T02:32:14.285Z,99.90
2023-05-19T02:35:02.642Z,99.90
2023-05-19T02:37:50.748Z,99.90
2023-05-19T02:40:40.378Z,99.90
2023-05-19T02:43:30.625Z,99.90
2023-05-19T02:46:18.759Z,99.90
2023-05-19T02:49:06.878Z,99.90
2023-05-19T02:51:55.054Z,99.90
2023-05-19T02:54:43.192Z,99.90
2023-05-19T02:57:33.191Z,99.90
2023-05-19T03:00:21.435Z,99.90
2023-05-19T03:03:10.509Z,99.90
2023-05-19T03:05:58.739Z,99.90
2023-05-19T03:08:46.833Z,99.90
2023-05-19T03:11:35.037Z,99.90
2023-05-19T03:14:24.758Z,99.90
2023-05-19T03:17:13.002Z,99.90
2023-05-19T03:20:02.083Z,99.90
2023-05-19T03:22:50.583Z,99.90
2023-05-19T03:25:38.707Z,99.90
2023-05-19T03:28:27.382Z,99.90
2023-05-19T03:31:17.213Z,99.90
2023-05-19T03:34:05.336Z,99.90
2023-05-19T03:36:53.437Z,99.90
2023-05-19T03:39:41.585Z,99.90
2023-05-19T03:42:29.690Z,99.90
2023-05-19T03:45:17.791Z,99.90
2023-05-19T03:48:07.605Z,99.90
2023-05-19T03:50:55.764Z,99.90
2023-05-19T03:53:45.662Z,99.90
2023-05-19T03:56:34.170Z,99.90
2023-05-19T03:59:23.645Z,99.90
2023-05-19T04:02:11.894Z,99.90
2023-05-19T04:05:01.594Z,99.90
2023-05-19T04:07:49.684Z,99.90
2023-05-19T04:10:37.777Z,99.90
2023-05-19T04:13:26.178Z,99.90
2023-05-19T04:16:14.570Z,99.90
2023-05-19T04:19:02.750Z,99.90
2023-05-19T04:21:52.965Z,99.90
2023-05-19T04:24:41.094Z,99.90
2023-05-19T04:27:30.140Z,99.90
2023-05-19T04:30:30.240Z,99.90
2023-05-19T04:33:20.136Z,99.90
2023-05-19T04:36:10.737Z,99.90
2023-05-19T04:39:06.199Z,99.90
2023-05-19T04:41:54.754Z,99.90
2023-05-19T04:44:42.922Z,99.90
2023-05-19T04:47:31.072Z,99.90
2023-05-19T04:50:23.540Z,99.90
2023-05-19T04:53:11.620Z,99.90
2023-05-19T04:56:01.499Z,99.90
2023-05-19T04:58:49.612Z,99.90
2023-05-19T05:01:40.916Z,99.90
2023-05-19T05:04:29.134Z,99.90
2023-05-19T05:07:17.306Z,99.90
2023-05-19T05:10:05.836Z,99.90
2023-05-19T05:12:55.988Z,99.90
2023-05-19T05:15:44.461Z,99.90
2023-05-19T05:18:32.856Z,99.90
2023-05-19T05:21:21.368Z,99.90
2023-05-19T05:24:10.245Z,99.90
2023-05-19T05:26:59.014Z,99.90
2023-05-19T05:29:49.458Z,99.90
2023-05-19T05:32:38.434Z,99.90
2023-05-19T05:35:27.036Z,99.90
2023-05-19T05:38:15.181Z,99.90
2023-05-19T05:41:03.661Z,99.90
2023-05-19T05:43:52.122Z,99.90
2023-05-19T05:46:42.381Z,99.90
2023-05-19T05:49:30.962Z,99.90
2023-05-19T05:52:19.900Z,99.90
2023-05-19T05:55:08.945Z,99.90
2023-05-19T05:57:58.769Z,99.90
2023-05-19T06:00:47.905Z,99.90
2023-05-19T06:03:38.108Z,99.90
2023-05-19T06:06:26.276Z,99.90
2023-05-19T06:09:14.403Z,99.90
2023-05-19T06:12:02.874Z,99.90
2023-05-19T06:14:52.084Z,99.90
2023-05-19T06:17:40.352Z,99.90
2023-05-19T06:20:30.082Z,99.90
2023-05-19T06:23:18.681Z,99.90
2023-05-19T06:26:06.830Z,99.90
2023-05-19T06:28:54.926Z,99.90
2023-05-19T06:31:43.137Z,99.90
2023-05-19T06:34:31.272Z,99.90
2023-05-19T06:37:21.705Z,99.90
2023-05-19T06:40:10.439Z,99.90
2023-05-19T06:42:58.584Z,99.90
2023-05-19T06:45:46.691Z,99.90
2023-05-19T06:48:34.879Z,99.90
2023-05-19T06:51:22.992Z,99.90
2023-05-19T06:54:15.957Z,99.90
2023-05-19T06:57:04.495Z,99.90
2023-05-19T06:59:52.598Z,99.90
2023-05-19T07:02:41.052Z,99.90
2023-05-19T07:05:29.378Z,99.90
2023-05-19T07:08:17.537Z,99.90
2023-05-19T07:11:07.116Z,99.90
2023-05-19T07:13:55.260Z,99.90
2023-05-19T07:16:43.471Z,99.90
2023-05-19T07:19:31.672Z,99.90
2023-05-19T07:22:19.872Z,99.90
2023-05-19T07:25:08.337Z,99.90
2023-05-19T07:27:57.873Z,99.90
2023-05-19T07:30:46.009Z,99.90
2023-05-19T07:33:34.122Z,99.90
2023-05-19T07:36:22.313Z,99.90
2023-05-19T07:39:10.795Z,99.90
2023-05-19T07:41:59.408Z,99.90
2023-05-19T07:44:48.930Z,99.90
2023-05-19T07:47:37.194Z,99.90
2023-05-19T07:50:25.466Z,99.90
2023-05-19T07:53:13.607Z,99.90
2023-05-19T07:56:01.693Z,99.90
2023-05-19T07:58:49.933Z,99.90
2023-05-19T08:01:39.406Z,99.90
2023-05-19T08:04:27.873Z,99.90
2023-05-19T08:07:16.012Z,99.90
2023-05-19T08:10:04.527Z,99.90
2023-05-19T08:12:52.656Z,99.90
2023-05-19T08:15:41.217Z,99.90
2023-05-19T08:18:30.843Z,99.90
2023-05-19T08:21:18.903Z,99.90
2023-05-19T08:24:07.343Z,99.90
2023-05-19T08:26:55.679Z,99.90
2023-05-19T08:29:43.807Z,99.90
2023-05-19T08:32:32.003Z,99.90
2023-05-19T08:35:21.752Z,99.90
2023-05-19T08:38:09.876Z,99.90
2023-05-19T08:40:58.735Z,99.90
2023-05-19T08:43:46.934Z,99.90
2023-05-19T08:46:35.201Z,99.90
2023-05-19T08:49:25.704Z,99.90
2023-05-19T08:52:21.046Z,99.90
2023-05-19T08:55:11.099Z,99.90
2023-05-19T08:57:59.315Z,99.90
2023-05-19T09:00:48.372Z,99.90
2023-05-19T09:03:38.449Z,99.90
2023-05-19T09:06:27.351Z,99.90
2023-05-19T09:09:17.404Z,99.90
2023-05-19T09:12:05.662Z,99.90
2023-05-19T09:14:54.077Z,99.90
2023-05-19T09:17:43.206Z,99.90
2023-05-19T09:20:31.785Z,99.90
2023-05-19T09:23:21.009Z,99.90
2023-05-19T09:26:10.870Z,99.90
2023-05-19T09:28:59.279Z,99.90
2023-05-19T09:31:51.550Z,99.90
2023-05-19T09:34:41.884Z,99.90
2023-05-19T09:37:30.081Z,99.90
2023-05-19T09:40:18.299Z,99.90
2023-05-19T09:43:08.911Z,99.90
2023-05-19T09:46:00.028Z,99.90
2023-05-19T09:48:48.228Z,99.90
2023-05-19T09:51:36.876Z,98.60
2023-05-19T09:54:25.403Z,98.00
2023-05-19T09:57:13.659Z,96.60
2023-05-19T10:00:04.175Z,96.50
2023-05-19T10:02:52.625Z,97.90
2023-05-19T10:05:41.727Z,96.20
2023-05-19T10:08:30.737Z,96.10
2023-05-19T10:11:19.149Z,95.10
2023-05-19T10:14:07.733Z,95.90
2023-05-19T10:16:58.309Z,94.60
2023-05-19T10:19:46.705Z,94.40
2023-05-19T10:22:34.918Z,94.70
2023-05-19T10:25:23.160Z,94.60
2023-05-19T10:28:12.985Z,94.10
2023-05-19T10:31:02.508Z,93.20
2023-05-19T10:34:01.416Z,93.60
2023-05-19T10:36:50.728Z,92.60
2023-05-19T10:39:40.738Z,93.50
2023-05-19T10:42:34.949Z,92.50
2023-05-19T10:45:23.871Z,92.30
2023-05-19T10:48:12.333Z,92.40
2023-05-19T10:51:02.108Z,92.30
2023-05-19T10:53:50.272Z,92.90
2023-05-19T10:56:42.529Z,91.90
2023-05-19T10:59:31.577Z,91.60
2023-05-19T11:02:38.598Z,91.10
2023-05-19T11:05:29.458Z,91.80
2023-05-19T11:08:32.147Z,91.00
2023-05-19T11:11:20.280Z,91.60
2023-05-19T11:14:08.402Z,91.60
2023-05-19T11:16:57.951Z,91.80
2023-05-19T11:19:53.651Z,91.00
2023-05-19T11:22:41.740Z,90.00
2023-05-19T11:25:43.452Z,89.00
2023-05-19T11:28:31.591Z,88.00
2023-05-19T11:31:23.022Z,89.60
2023-05-19T11:34:11.412Z,88.90
2023-05-19T11:36:59.893Z,87.80
2023-05-19T11:39:48.208Z,87.80
2023-05-19T11:42:37.955Z,88.00
2023-05-19T11:45:26.996Z,87.40
2023-05-19T11:48:16.033Z,86.00
2023-05-19T11:51:04.373Z,82.90
2023-05-19T11:53:54.345Z,83.70
2023-05-19T11:56:42.860Z,83.90
2023-05-19T11:59:35.484Z,83.90
2023-05-19T12:02:25.069Z,83.90
2023-05-19T12:05:19.045Z,82.50
2023-05-19T12:08:07.652Z,81.60
2023-05-19T12:10:56.260Z,82.00
2023-05-19T12:13:45.119Z,80.90
2023-05-19T12:16:37.464Z,79.70
2023-05-19T12:19:25.900Z,80.60
2023-05-19T12:22:14.663Z,79.80
2023-05-19T12:25:05.097Z,80.10
2023-05-19T12:27:56.169Z,80.00
2023-05-19T12:30:48.218Z,80.50
2023-05-19T12:33:37.691Z,79.50
2023-05-19T12:36:27.336Z,80.20
2023-05-19T12:39:15.623Z,77.10
2023-05-19T12:42:04.111Z,77.10
2023-05-19T12:44:52.780Z,76.00
2023-05-19T12:47:40.932Z,76.80
2023-05-19T12:50:32.926Z,78.60
2023-05-19T12:53:21.341Z,76.40
2023-05-19T12:56:12.982Z,77.30
2023-05-19T12:59:01.733Z,75.70
2023-05-19T13:01:56.348Z,77.40
2023-05-19T13:04:45.046Z,76.00
2023-05-19T13:07:35.793Z,74.20
2023-05-19T13:10:24.119Z,75.70
2023-05-19T13:13:12.434Z,75.10
2023-05-19T13:16:00.559Z,74.40
2023-05-19T13:18:48.726Z,75.60
2023-05-19T13:21:36.922Z,74.10
2023-05-19T13:24:26.442Z,74.10
2023-05-19T13:27:14.533Z,72.90
2023-05-19T13:30:02.654Z,73.80
2023-05-19T13:32:52.502Z,74.00
2023-05-19T13:35:40.923Z,73.90
2023-05-19T13:38:30.433Z,73.40
2023-05-19T13:41:24.475Z,75.20
2023-05-19T13:44:12.568Z,75.30
2023-05-19T13:47:00.884Z,76.40
2023-05-19T13:49:49.021Z,74.60
2023-05-19T13:52:38.291Z,74.00
2023-05-19T13:55:27.472Z,73.40
2023-05-19T13:58:18.049Z,74.10
2023-05-19T14:01:06.235Z,73.50
2023-05-19T14:03:54.485Z,73.30
2023-05-19T14:06:42.710Z,73.70
2023-05-19T14:09:30.850Z,71.40
2023-05-19T14:12:19.316Z,71.20
2023-05-19T14:15:11.430Z,71.70
2023-05-19T14:17:59.822Z,71.40
2023-05-19T14:20:48.009Z,70.50
2023-05-19T14:23:36.108Z,68.30
2023-05-19T14:26:24.336Z,69.80
2023-05-19T14:29:12.440Z,70.80
2023-05-19T14:32:03.085Z,69.60
2023-05-19T14:34:52.906Z,70.70
2023-05-19T14:37:41.077Z,70.90
2023-05-19T14:40:29.166Z,70.20
2023-05-19T14:43:17.387Z,71.20
2023-05-19T14:46:05.641Z,71.90
2023-05-19T14:48:55.118Z,69.60
2023-05-19T14:51:43.228Z,69.10
2023-05-19T14:54:31.382Z,68.10
2023-05-19T14:57:19.492Z,68.50
2023-05-19T15:00:09.251Z,68.40
2023-05-19T15:02:57.580Z,68.40
2023-05-19T15:05:47.096Z,67.00
2023-05-19T15:08:35.208Z,66.60
2023-05-19T15:11:23.463Z,67.50
2023-05-19T15:14:11.608Z,67.50
2023-05-19T15:16:59.969Z,67.40
2023-05-19T15:19:48.278Z,66.00
2023-05-19T15:22:37.733Z,67.30
2023-05-19T15:25:25.839Z,66.00
2023-05-19T15:28:14.481Z,66.60
2023-05-19T15:31:02.718Z,66.80
2023-05-19T15:33:50.878Z,67.30
2023-05-19T15:36:39.077Z,68.50
2023-05-19T15:39:28.535Z,67.60
2023-05-19T15:42:16.725Z,67.30
2023-05-19T15:45:05.157Z,68.10
2023-05-19T15:47:53.293Z,68.50
2023-05-19T15:50:41.411Z,67.60
2023-05-19T15:53:29.551Z,67.90
2023-05-19T15:56:19.873Z,67.40
2023-05-19T15:59:07.987Z,67.80
2023-05-19T16:01:56.286Z,66.60
2023-05-19T16:04:44.437Z,67.00
2023-05-19T16:07:32.592Z,67.60
2023-05-19T16:10:20.739Z,67.70
2023-05-19T16:13:10.292Z,67.30
2023-05-19T16:15:58.478Z,67.20
2023-05-19T16:18:46.622Z,67.60
2023-05-19T16:21:34.764Z,68.10
2023-05-19T16:24:22.896Z,68.90
2023-05-19T16:27:11.176Z,69.70
2023-05-19T16:30:01.176Z,69.30
2023-05-19T16:32:49.444Z,67.80
2023-05-19T16:35:37.714Z,68.10
2023-05-19T16:38:26.732Z,69.00
2023-05-19T16:41:14.943Z,69.70
2023-05-19T16:44:03.243Z,70.50
2023-05-19T16:46:52.744Z,70.70
2023-05-19T16:49:41.432Z,70.30
2023-05-19T16:52:29.630Z,71.40
2023-05-19T16:55:19.996Z,71.40
2023-05-19T16:58:08.100Z,71.80
2023-05-19T17:00:57.619Z,72.00
2023-05-19T17:03:47.087Z,72.40
2023-05-19T17:06:35.239Z,72.30
2023-05-19T17:09:25.863Z,72.90
2023-05-19T17:12:14.017Z,74.10
2023-05-19T17:15:02.139Z,73.90
2023-05-19T17:17:50.324Z,74.10
2023-05-19T17:20:39.829Z,74.90
2023-05-19T17:23:27.926Z,74.20
2023-05-19T17:26:16.781Z,72.80
2023-05-19T17:29:05.796Z,72.90
2023-05-19T17:31:54.037Z,73.20
2023-05-19T17:34:42.177Z,73.00
2023-05-19T17:37:31.664Z,72.80
2023-05-19T17:40:19.915Z,73.40
2023-05-19T17:43:08.261Z,74.50
2023-05-19T17:45:58.155Z,74.80
2023-05-19T17:48:46.966Z,75.80
2023-05-19T17:51:35.371Z,76.10
2023-05-19T17:54:26.339Z,77.20
2023-05-19T17:57:15.883Z,76.60
2023-05-19T18:00:04.635Z,76.70
2023-05-19T18:02:55.848Z,77.10
2023-05-19T18:05:44.744Z,77.50
2023-05-19T18:08:33.405Z,77.70
2023-05-19T18:11:23.314Z,77.70
2023-05-19T18:14:11.450Z,77.70
2023-05-19T18:16:59.574Z,78.00
2023-05-19T18:19:47.750Z,78.20
2023-05-19T18:22:35.901Z,78.90
2023-05-19T18:25:24.081Z,79.10
2023-05-19T18:28:13.548Z,79.10
2023-05-19T18:31:01.868Z,79.50
2023-05-19T18:33:50.144Z,79.70
2023-05-19T18:36:38.379Z,79.70
2023-05-19T18:39:28.584Z,80.00
2023-05-19T18:42:17.528Z,80.30
2023-05-19T18:45:07.694Z,80.90
2023-05-19T18:47:56.311Z,81.00
2023-05-19T18:50:44.756Z,81.20
2023-05-19T18:53:33.847Z,81.70
2023-05-19T18:56:24.931Z,82.10
2023-05-19T18:59:13.025Z,81.60
2023-05-19T19:02:03.189Z,81.90
2023-05-19T19:04:51.410Z,82.50
2023-05-19T19:07:43.196Z,82.70
2023-05-19T19:10:34.578Z,82.90
2023-05-19T19:13:22.980Z,83.30
2023-05-19T19:16:11.700Z,83.70
2023-05-19T19:19:01.379Z,83.80
2023-05-19T19:21:49.674Z,84.00
2023-05-19T19:24:38.015Z,83.90
2023-05-19T19:27:31.017Z,84.50
2023-05-19T19:30:19.283Z,84.80
2023-05-19T19:33:07.438Z,85.20
2023-05-19T19:35:57.288Z,85.30
2023-05-19T19:38:45.443Z,85.90
2023-05-19T19:41:33.860Z,86.10
2023-05-19T19:44:22.910Z,87.00
2023-05-19T19:47:11.795Z,87.30
2023-05-19T19:50:05.744Z,87.40
2023-05-19T19:52:55.296Z,87.40
2023-05-19T19:55:43.430Z,87.40
2023-05-19T19:58:31.681Z,88.10
2023-05-19T20:01:20.490Z,88.30
2023-05-19T20:04:08.912Z,88.80
2023-05-19T20:06:57.128Z,89.10
2023-05-19T20:09:46.893Z,89.00
2023-05-19T20:12:35.021Z,89.60
2023-05-19T20:15:23.120Z,89.80
2023-05-19T20:18:11.272Z,90.20
2023-05-19T20:20:59.499Z,90.10
2023-05-19T20:23:48.266Z,90.10
2023-05-19T20:26:37.788Z,90.20
2023-05-19T20:29:25.912Z,90.50
2023-05-19T20:32:14.271Z,90.60
2023-05-19T20:35:02.459Z,90.80
2023-05-19T20:37:50.619Z,91.00
2023-05-19T20:40:38.718Z,91.00
2023-05-19T20:43:28.199Z,91.30
2023-05-19T20:46:16.473Z,91.40
2023-05-19T20:49:04.622Z,91.20
2023-05-19T20:51:52.759Z,91.40
2023-05-19T20:54:40.926Z,91.70
2023-05-19T20:57:29.060Z,91.80
2023-05-19T21:00:18.967Z,91.90
2023-05-19T21:03:07.171Z,92.10
2023-05-19T21:05:55.584Z,92.10
2023-05-19T21:08:44.187Z,92.20
2023-05-19T21:11:32.372Z,92.70
2023-05-19T21:14:20.487Z,92.50
2023-05-19T21:17:10.019Z,92.70
2023-05-19T21:19:59.733Z,92.80
2023-05-19T21:22:47.851Z,92.80
2023-05-19T21:25:36.104Z,93.20
2023-05-19T21:28:24.241Z,93.10
2023-05-19T21:31:12.464Z,93.40
2023-05-19T21:34:01.956Z,93.60
2023-05-19T21:36:50.461Z,93.70
2023-05-19T21:39:38.586Z,94.00
2023-05-19T21:42:26.687Z,94.40
2023-05-19T21:45:14.787Z,94.50
2023-05-19T21:48:02.994Z,94.60
2023-05-19T21:50:54.967Z,94.90
2023-05-19T21:53:43.179Z,94.80
2023-05-19T21:56:31.284Z,95.10
2023-05-19T21:59:23.159Z,95.10
2023-05-19T22:02:11.373Z,95.10
2023-05-19T22:04:59.522Z,95.30
2023-05-19T22:07:48.976Z,95.60
2023-05-19T22:10:37.397Z,95.90
2023-05-19T22:13:25.705Z,95.60
2023-05-19T22:16:13.896Z,95.70
2023-05-19T22:19:02.060Z,95.90
2023-05-19T22:21:53.681Z,96.00
2023-05-19T22:24:48.532Z,96.30
2023-05-19T22:27:36.749Z,96.50
2023-05-19T22:30:24.939Z,96.40
2023-05-19T22:33:13.107Z,96.60
2023-05-19T22:36:01.325Z,96.90
2023-05-19T22:38:49.443Z,96.80
2023-05-19T22:41:38.935Z,97.10
2023-05-19T22:44:27.035Z,97.30
2023-05-19T22:47:15.132Z,97.40
2023-05-19T22:50:03.235Z,97.60
2023-05-19T22:52:51.534Z,97.80
2023-05-19T22:55:39.856Z,97.80
2023-05-19T22:58:29.336Z,98.00
2023-05-19T23:01:17.800Z,98.20
2023-05-19T23:04:06.420Z,98.40
2023-05-19T23:06:54.764Z,98.40
2023-05-19T23:09:42.999Z,98.70
2023-05-19T23:12:31.233Z,98.70
2023-05-19T23:15:20.788Z,99.00
2023-05-19T23:18:08.934Z,99.20
2023-05-19T23:20:57.092Z,99.50
2023-05-19T23:23:45.375Z,99.70
2023-05-19T23:26:33.476Z,99.90
2023-05-19T23:29:21.583Z,99.90
2023-05-19T23:32:11.303Z,99.90
2023-05-19T23:34:59.483Z,99.90
2023-05-19T23:37:47.604Z,99.90
2023-05-19T23:40:35.780Z,99.90
2023-05-19T23:43:23.906Z,99.90
2023-05-19T23:46:12.247Z,99.90
2023-05-19T23:49:01.792Z,99.90
2023-05-19T23:51:50.014Z,99.90
2023-05-19T23:54:38.121Z,99.90
2023-05-19T23:57:26.489Z,99.90
